Terminal Aerodrome Forecast
Issued by NWS

Home | Current Version | Previous Version | Text Only | Print | Product List | Glossary Off
Versions: 1 2 3 4 5 6 7 8 9 10 11 12 13 14 15 16

000
FTUS43 KGRB 081136
TAFAUW
TAF
KAUW 081136Z 0812/0912 29011G19KT 6SM -SHSN SCT018 OVC022
      TEMPO 0812/0816 1SM -SHSN BKN018
     FM081600 30010G18KT P6SM -SHSN OVC025
      TEMPO 0816/0820 2SM -SHSN BKN018
     FM082100 30009G14KT P6SM OVC030
     FM090000 30008KT P6SM OVC035
     FM091000 30007KT P6SM BKN026=

USA.gov is the U.S. government's official web portal to all federal, state and local government web resources and services.